createdAt,value
2022-10-10T00:01:23.771Z,98941.56
2022-10-10T00:03:50.603Z,98943.44
2022-10-10T00:06:17.879Z,98940.84
2022-10-10T00:08:45.447Z,98935.16
2022-10-10T00:11:13.458Z,98928.63
2022-10-10T00:13:40.724Z,98940.66
2022-10-10T00:16:07.378Z,98937.31
2022-10-10T00:18:34.497Z,98929.16
2022-10-10T00:21:01.331Z,98943.44
2022-10-10T00:23:28.218Z,98936.06
2022-10-10T00:25:55.110Z,98934.34
2022-10-10T00:28:21.968Z,98939.41
2022-10-10T00:30:48.725Z,98938.88
2022-10-10T00:33:15.427Z,98941.66
2022-10-10T00:35:42.490Z,98938.16
2022-10-10T00:38:09.448Z,98941.78
2022-10-10T00:40:44.142Z,98946.41
2022-10-10T00:43:13.442Z,98943.13
2022-10-10T00:45:42.378Z,98931.41
2022-10-10T00:48:13.878Z,98934.00
2022-10-10T00:50:46.397Z,98922.78
2022-10-10T00:53:17.308Z,98938.31
2022-10-10T00:55:45.182Z,98926.97
2022-10-10T00:58:12.608Z,98924.91
2022-10-10T01:00:39.332Z,98925.41
2022-10-10T01:03:05.989Z,98923.03
2022-10-10T01:05:33.829Z,98924.03
2022-10-10T01:08:02.294Z,98924.25
2022-10-10T01:10:29.199Z,98914.31
2022-10-10T01:12:58.510Z,98919.19
2022-10-10T01:15:55.200Z,98921.28
2022-10-10T01:18:27.590Z,98908.63
2022-10-10T01:20:57.139Z,98918.25
2022-10-10T01:23:29.809Z,98901.69
2022-10-10T01:25:59.306Z,98913.88
2022-10-10T01:28:50.073Z,98915.75
2022-10-10T01:31:22.549Z,98898.78
2022-10-10T01:34:17.181Z,98900.47
2022-10-10T01:37:09.128Z,98901.72
2022-10-10T01:40:12.573Z,98904.41
2022-10-10T01:42:42.030Z,98902.09
2022-10-10T01:45:09.488Z,98903.31
2022-10-10T01:47:36.131Z,98890.00
2022-10-10T01:50:09.268Z,98889.88
2022-10-10T01:53:16.946Z,98890.06
2022-10-10T01:55:54.955Z,98887.34
2022-10-10T01:58:45.531Z,98888.56
2022-10-10T02:01:37.092Z,98896.41
2022-10-10T02:04:30.213Z,98881.53
2022-10-10T02:07:06.634Z,98870.94
2022-10-10T02:09:42.650Z,98871.00
2022-10-10T02:12:12.549Z,98866.03
2022-10-10T02:14:50.670Z,98870.28
2022-10-10T02:17:18.398Z,98871.72
2022-10-10T02:19:50.993Z,98871.63
2022-10-10T02:22:20.876Z,98870.59
2022-10-10T02:24:47.760Z,98861.56
2022-10-10T02:27:23.782Z,98859.53
2022-10-10T02:29:52.675Z,98861.72
2022-10-10T02:32:31.658Z,98860.78
2022-10-10T02:35:05.824Z,98854.72
2022-10-10T02:37:33.210Z,98859.88
2022-10-10T02:40:02.547Z,98865.03
2022-10-10T02:42:30.106Z,98857.41
2022-10-10T02:44:57.611Z,98859.66
2022-10-10T02:47:24.433Z,98856.44
2022-10-10T02:49:51.240Z,98853.84
2022-10-10T02:52:18.363Z,98853.97
2022-10-10T02:54:44.929Z,98857.69
2022-10-10T02:57:12.285Z,98850.34
2022-10-10T02:59:38.925Z,98860.38
2022-10-10T03:02:06.386Z,98855.13
2022-10-10T03:04:33.073Z,98851.00
2022-10-10T03:06:59.712Z,98849.03
2022-10-10T03:09:26.331Z,98852.25
2022-10-10T03:11:52.992Z,98850.06
2022-10-10T03:14:19.603Z,98850.16
2022-10-10T03:16:46.249Z,98849.56
2022-10-10T03:19:12.846Z,98833.94
2022-10-10T03:21:39.625Z,98854.09
2022-10-10T03:24:06.370Z,98845.63
2022-10-10T03:26:32.988Z,98854.19
2022-10-10T03:29:02.222Z,98855.13
2022-10-10T03:31:29.314Z,98854.72
2022-10-10T03:33:55.842Z,98854.91
2022-10-10T03:36:23.185Z,98856.03
2022-10-10T03:38:49.776Z,98846.63
2022-10-10T03:41:16.389Z,98859.22
2022-10-10T03:43:43.000Z,98852.84
2022-10-10T03:46:15.083Z,98851.59
2022-10-10T03:48:43.092Z,98845.72
2022-10-10T03:51:09.891Z,98850.47
2022-10-10T03:53:37.122Z,98852.84
2022-10-10T03:56:04.181Z,98851.13
2022-10-10T03:58:31.044Z,98841.59
2022-10-10T04:01:00.765Z,98842.63
2022-10-10T04:03:28.187Z,98838.38
2022-10-10T04:05:55.191Z,98839.13
2022-10-10T04:08:21.851Z,98837.25
2022-10-10T04:10:52.949Z,98844.81
2022-10-10T04:13:21.110Z,98844.81
2022-10-10T04:15:51.944Z,98844.41
2022-10-10T04:18:19.506Z,98847.91
2022-10-10T04:20:46.093Z,98847.19
2022-10-10T04:23:12.786Z,98838.34
2022-10-10T04:25:39.536Z,98843.84
2022-10-10T04:28:06.258Z,98844.41
2022-10-10T04:30:34.713Z,98837.56
2022-10-10T04:33:01.608Z,98849.25
2022-10-10T04:35:28.318Z,98844.91
2022-10-10T04:37:55.051Z,98847.47
2022-10-10T04:40:26.386Z,98849.56
2022-10-10T04:42:54.775Z,98844.59
2022-10-10T04:45:21.669Z,98843.75
2022-10-10T04:47:48.469Z,98845.22
2022-10-10T04:50:15.125Z,98847.09
2022-10-10T04:52:41.910Z,98846.34
2022-10-10T04:55:08.711Z,98844.69
2022-10-10T04:57:35.364Z,98849.78
2022-10-10T05:00:03.071Z,98841.50
2022-10-10T05:02:29.737Z,98840.78
2022-10-10T05:04:56.318Z,98850.81
2022-10-10T05:07:23.923Z,98847.69
2022-10-10T05:09:50.724Z,98843.53
2022-10-10T05:12:17.385Z,98839.59
2022-10-10T05:14:47.910Z,98846.88
2022-10-10T05:17:15.344Z,98849.56
2022-10-10T05:19:41.909Z,98841.28
2022-10-10T05:22:08.565Z,98852.53
2022-10-10T05:24:35.155Z,98849.66
2022-10-10T05:27:01.767Z,98847.09
2022-10-10T05:29:28.497Z,98852.97
2022-10-10T05:31:55.246Z,98851.84
2022-10-10T05:34:21.911Z,98851.63
2022-10-10T05:36:48.600Z,98857.00
2022-10-10T05:39:15.249Z,98853.72
2022-10-10T05:41:41.877Z,98855.34
2022-10-10T05:44:09.221Z,98853.72
2022-10-10T05:46:35.903Z,98856.69
2022-10-10T05:49:02.484Z,98859.16
2022-10-10T05:51:29.167Z,98861.63
2022-10-10T05:53:57.417Z,98861.34
2022-10-10T05:56:24.122Z,98862.91
2022-10-10T05:58:51.576Z,98836.22
2022-10-10T06:01:18.578Z,98863.63
2022-10-10T06:03:45.160Z,98856.09
2022-10-10T06:06:11.810Z,98866.41
2022-10-10T06:08:38.469Z,98873.88
2022-10-10T06:11:11.169Z,98867.03
2022-10-10T06:13:38.626Z,98870.84
2022-10-10T06:16:05.297Z,98866.72
2022-10-10T06:18:31.960Z,98860.28
2022-10-10T06:21:02.946Z,98876.31
2022-10-10T06:23:29.594Z,98879.66
2022-10-10T06:25:56.260Z,98877.25
2022-10-10T06:28:23.323Z,98875.41
2022-10-10T06:30:51.260Z,98883.78
2022-10-10T06:33:19.352Z,98888.84
2022-10-10T06:35:48.472Z,98883.88
2022-10-10T06:38:16.500Z,98881.28
2022-10-10T06:40:43.477Z,98886.56
2022-10-10T06:43:12.337Z,98873.63
2022-10-10T06:45:40.976Z,98876.13
2022-10-10T06:48:08.942Z,98879.13
2022-10-10T06:50:35.876Z,98885.56
2022-10-10T06:53:02.573Z,98882.97
2022-10-10T06:55:29.338Z,98891.53
2022-10-10T06:57:56.086Z,98884.19
2022-10-10T07:00:22.883Z,98891.03
2022-10-10T07:02:49.960Z,98895.69
2022-10-10T07:05:18.139Z,98896.34
2022-10-10T07:07:45.278Z,98902.31
2022-10-10T07:10:14.167Z,98904.09
2022-10-10T07:12:44.705Z,98904.69
2022-10-10T07:15:12.646Z,98908.22
2022-10-10T07:17:39.484Z,98906.25
2022-10-10T07:20:07.127Z,98912.34
2022-10-10T07:22:33.892Z,98915.78
2022-10-10T07:25:00.560Z,98920.09
2022-10-10T07:27:27.414Z,98917.72
2022-10-10T07:29:54.194Z,98929.22
2022-10-10T07:32:20.791Z,98930.88
2022-10-10T07:34:47.439Z,98930.28
2022-10-10T07:37:14.028Z,98932.75
2022-10-10T07:39:40.762Z,98928.41
2022-10-10T07:42:07.446Z,98933.47
2022-10-10T07:44:34.820Z,98936.97
2022-10-10T07:47:01.879Z,98944.56
2022-10-10T07:49:28.811Z,98946.19
2022-10-10T07:52:00.550Z,98952.81
2022-10-10T07:54:31.807Z,98945.16
2022-10-10T07:56:59.191Z,98949.31
2022-10-10T07:59:26.117Z,98948.59
2022-10-10T08:01:53.018Z,98944.13
2022-10-10T08:04:20.275Z,98939.88
2022-10-10T08:06:46.981Z,98954.81
2022-10-10T08:09:13.623Z,98954.81
2022-10-10T08:11:40.426Z,98958.22
2022-10-10T08:14:06.988Z,98962.94
2022-10-10T08:16:33.697Z,98957.06
2022-10-10T08:19:00.288Z,98962.94
2022-10-10T08:21:27.050Z,98955.28
2022-10-10T08:23:53.642Z,98961.81
2022-10-10T08:26:20.503Z,98959.88
2022-10-10T08:28:48.682Z,98957.91
2022-10-10T08:31:19.536Z,98964.53
2022-10-10T08:33:47.789Z,98958.88
2022-10-10T08:36:18.364Z,98960.00
2022-10-10T08:38:45.653Z,98964.34
2022-10-10T08:41:26.213Z,98961.94
2022-10-10T08:43:58.367Z,98958.84
2022-10-10T08:46:43.688Z,98963.06
2022-10-10T08:49:30.682Z,98972.81
2022-10-10T08:52:08.054Z,98965.47
2022-10-10T08:54:37.338Z,98962.47
2022-10-10T08:57:06.894Z,98957.81
2022-10-10T08:59:38.515Z,98971.16
2022-10-10T09:02:43.551Z,98966.09
2022-10-10T09:05:18.472Z,98968.78
2022-10-10T09:08:00.266Z,98963.59
2022-10-10T09:10:49.929Z,98960.09
2022-10-10T09:13:25.398Z,98960.91
2022-10-10T09:15:57.599Z,98957.31
2022-10-10T09:18:43.043Z,98961.34
2022-10-10T09:21:22.148Z,98951.91
2022-10-10T09:24:05.515Z,98951.91
2022-10-10T09:26:47.888Z,98962.78
2022-10-10T09:29:23.723Z,98960.31
2022-10-10T09:31:56.797Z,98955.44
2022-10-10T09:34:38.617Z,98958.97
2022-10-10T09:37:24.206Z,98959.69
2022-10-10T09:40:03.266Z,98965.59
2022-10-10T09:42:38.665Z,98966.41
2022-10-10T09:45:37.522Z,98962.69
2022-10-10T09:48:04.663Z,98968.56
2022-10-10T09:50:31.403Z,98975.53
2022-10-10T09:52:58.417Z,98971.69
2022-10-10T09:55:30.518Z,98964.84
2022-10-10T09:58:04.017Z,98961.56
2022-10-10T10:00:36.562Z,98972.94
2022-10-10T10:03:12.606Z,98976.22
2022-10-10T10:05:41.826Z,98970.44
2022-10-10T10:08:35.452Z,98961.78
2022-10-10T10:11:04.170Z,98959.91
2022-10-10T10:13:36.387Z,98965.06
2022-10-10T10:16:36.650Z,98960.53
2022-10-10T10:19:04.703Z,98959.47
2022-10-10T10:21:32.296Z,98969.66
2022-10-10T10:23:58.949Z,98959.91
2022-10-10T10:26:51.134Z,98971.19
2022-10-10T10:29:31.606Z,98957.13
2022-10-10T10:32:18.954Z,98962.81
2022-10-10T10:34:57.684Z,98960.13
2022-10-10T10:37:36.016Z,98963.84
2022-10-10T10:40:04.358Z,98954.03
2022-10-10T10:42:42.680Z,98957.44
2022-10-10T10:45:28.983Z,98952.38
2022-10-10T10:48:23.141Z,98953.28
2022-10-10T10:50:55.583Z,98950.59
2022-10-10T10:53:36.130Z,98948.75
2022-10-10T10:56:46.667Z,98951.63
2022-10-10T11:00:26.868Z,98956.50
2022-10-10T11:02:59.759Z,98949.06
2022-10-10T11:05:41.769Z,98943.56
2022-10-10T11:08:33.710Z,98945.31
2022-10-10T11:11:09.078Z,98942.72
2022-10-10T11:14:00.419Z,98942.63
2022-10-10T11:16:47.485Z,98936.50
2022-10-10T11:19:15.390Z,98942.41
2022-10-10T11:21:49.560Z,98941.56
2022-10-10T11:24:33.694Z,98937.94
2022-10-10T11:27:07.495Z,98921.06
2022-10-10T11:29:51.190Z,98931.19
2022-10-10T11:32:43.121Z,98933.59
2022-10-10T11:35:36.682Z,98913.06
2022-10-10T11:38:12.770Z,98922.81
2022-10-10T11:40:55.282Z,98930.78
2022-10-10T11:43:35.032Z,98929.13
2022-10-10T11:46:39.421Z,98923.84
2022-10-10T11:49:14.184Z,98922.81
2022-10-10T11:52:32.033Z,98923.44
2022-10-10T11:55:03.891Z,98915.75
2022-10-10T11:57:47.875Z,98906.84
2022-10-10T12:00:17.896Z,98896.91
2022-10-10T12:02:47.254Z,98902.72
2022-10-10T12:05:26.186Z,98899.16
2022-10-10T12:08:21.966Z,98899.78
2022-10-10T12:10:58.701Z,98894.63
2022-10-10T12:13:34.206Z,98891.41
2022-10-10T12:16:13.053Z,98906.09
2022-10-10T12:18:53.111Z,98892.94
2022-10-10T12:21:22.702Z,98896.97
2022-10-10T12:23:57.412Z,98898.31
2022-10-10T12:26:24.458Z,98897.81
2022-10-10T12:29:10.425Z,98895.09
2022-10-10T12:31:37.885Z,98895.84
2022-10-10T12:34:10.435Z,98890.66
2022-10-10T12:36:40.083Z,98883.81
2022-10-10T12:39:07.873Z,98889.63
2022-10-10T12:41:47.205Z,98887.84
2022-10-10T12:44:23.690Z,98885.25
2022-10-10T12:48:04.428Z,98855.03
2022-10-10T12:50:37.005Z,98883.59
2022-10-10T12:53:12.446Z,98871.38
2022-10-10T12:55:46.956Z,98871.75
2022-10-10T12:58:28.375Z,98863.88
2022-10-10T13:01:01.309Z,98862.81
2022-10-10T13:03:44.548Z,98865.78
2022-10-10T13:06:40.364Z,98863.38
2022-10-10T13:09:10.950Z,98858.78
2022-10-10T13:12:29.821Z,98864.69
2022-10-10T13:14:57.530Z,98859.84
2022-10-10T13:17:32.031Z,98851.34
2022-10-10T13:20:00.888Z,98853.63
2022-10-10T13:22:30.096Z,98862.31
2022-10-10T13:24:58.252Z,98854.44
2022-10-10T13:27:35.153Z,98852.75
2022-10-10T13:30:02.588Z,98855.63
2022-10-10T13:32:33.375Z,98856.13
2022-10-10T13:35:06.480Z,98852.38
2022-10-10T13:37:33.913Z,98845.41
2022-10-10T13:40:01.261Z,98852.03
2022-10-10T13:42:33.123Z,98856.41
2022-10-10T13:45:01.400Z,98846.69
2022-10-10T13:47:40.085Z,98854.84
2022-10-10T13:50:20.835Z,98853.88
2022-10-10T13:52:47.517Z,98856.81
2022-10-10T13:55:20.771Z,98860.97
2022-10-10T13:57:51.504Z,98854.72
2022-10-10T14:00:24.944Z,98858.88
2022-10-10T14:02:51.765Z,98850.03
2022-10-10T14:05:29.526Z,98860.72
2022-10-10T14:07:57.636Z,98857.31
2022-10-10T14:10:27.344Z,98848.81
2022-10-10T14:13:00.558Z,98849.44
2022-10-10T14:15:42.461Z,98846.97
2022-10-10T14:18:24.584Z,98842.59
2022-10-10T14:20:53.580Z,98842.81
2022-10-10T14:23:20.332Z,98840.13
2022-10-10T14:25:49.244Z,98841.03
2022-10-10T14:28:19.993Z,98845.91
2022-10-10T14:30:48.098Z,98842.13
2022-10-10T14:33:18.252Z,98839.19
2022-10-10T14:35:46.700Z,98835.28
2022-10-10T14:38:15.079Z,98829.47
2022-10-10T14:40:45.065Z,98845.19
2022-10-10T14:43:12.357Z,98848.63
2022-10-10T14:45:39.363Z,98847.06
2022-10-10T14:48:06.480Z,98839.41
2022-10-10T14:50:38.306Z,98848.94
2022-10-10T14:53:05.090Z,98837.88
2022-10-10T14:55:31.721Z,98841.38
2022-10-10T14:58:01.157Z,98838.56
2022-10-10T15:00:34.340Z,98822.75
2022-10-10T15:03:10.273Z,98824.28
2022-10-10T15:05:36.964Z,98824.28
2022-10-10T15:08:10.176Z,98819.34
2022-10-10T15:10:37.178Z,98829.38
2022-10-10T15:13:03.778Z,98826.22
2022-10-10T15:15:30.704Z,98829.03
2022-10-10T15:18:52.669Z,98824.91
2022-10-10T15:21:15.794Z,98821.81
2022-10-10T15:24:01.013Z,98825.50
2022-10-10T15:26:35.094Z,98822.91
2022-10-10T15:29:17.576Z,98826.34
2022-10-10T15:31:51.169Z,98816.53
2022-10-10T15:34:37.682Z,98815.25
2022-10-10T15:37:15.524Z,98817.72
2022-10-10T15:39:51.905Z,98818.69
2022-10-10T15:42:34.008Z,98818.78
2022-10-10T15:45:03.168Z,98811.22
2022-10-10T15:47:29.859Z,98819.38
2022-10-10T15:49:56.636Z,98812.75
2022-10-10T15:52:23.345Z,98819.72
2022-10-10T15:54:50.194Z,98815.69
2022-10-10T15:57:18.689Z,98814.16
2022-10-10T15:59:46.604Z,98813.00
2022-10-10T16:02:13.726Z,98811.22
2022-10-10T16:04:40.679Z,98798.72
2022-10-10T16:09:54.334Z,98812.22
2022-10-10T16:12:21.266Z,98805.22
2022-10-10T16:14:48.034Z,98808.44
2022-10-10T16:17:15.986Z,98807.56
2022-10-10T16:19:44.216Z,98801.69
2022-10-10T16:22:10.842Z,98802.97
2022-10-10T16:24:37.536Z,98807.94
2022-10-10T16:27:04.156Z,98820.06
2022-10-10T16:29:31.006Z,98811.69
2022-10-10T16:31:57.916Z,98808.41
2022-10-10T16:34:24.669Z,98816.84
2022-10-10T16:36:51.302Z,98820.59
2022-10-10T16:39:18.000Z,98816.13
2022-10-10T16:41:48.986Z,98815.91
2022-10-10T16:44:17.366Z,98826.28
2022-10-10T16:46:44.557Z,98832.03
2022-10-10T16:49:13.278Z,98825.41
2022-10-10T16:51:40.234Z,98821.31
2022-10-10T16:54:07.323Z,98830.03
2022-10-10T16:56:34.940Z,98831.06
2022-10-10T16:59:02.277Z,98832.00
2022-10-10T17:01:29.293Z,98823.03
2022-10-10T17:04:00.000Z,98830.75
2022-10-10T17:06:32.632Z,98840.94
2022-10-10T17:09:02.994Z,98830.03
2022-10-10T17:11:29.643Z,98842.66
2022-10-10T17:13:56.525Z,98850.53
2022-10-10T17:19:12.298Z,98852.13
2022-10-10T17:21:38.944Z,98855.84
2022-10-10T17:24:05.820Z,98861.97
2022-10-10T17:26:32.474Z,98856.97
2022-10-10T17:28:59.756Z,98862.84
2022-10-10T17:31:27.303Z,98869.00
2022-10-10T17:33:55.018Z,98873.75
2022-10-10T17:36:23.931Z,98868.81
2022-10-10T17:38:51.196Z,98872.84
2022-10-10T17:41:18.712Z,98879.41
2022-10-10T17:43:45.833Z,98875.78
2022-10-10T17:46:34.249Z,98883.66
2022-10-10T17:49:06.181Z,98881.72
2022-10-10T17:51:34.129Z,98883.66
2022-10-10T17:54:01.860Z,98883.66
2022-10-10T17:56:29.009Z,98882.44
2022-10-10T17:58:55.836Z,98885.25
2022-10-10T18:01:23.114Z,98887.78
2022-10-10T18:03:49.901Z,98895.34
2022-10-10T18:06:20.360Z,98895.13
2022-10-10T18:08:48.066Z,98889.44
2022-10-10T18:11:17.201Z,98897.09
2022-10-10T18:13:44.715Z,98896.03
2022-10-10T18:16:17.659Z,98894.53
2022-10-10T18:18:50.632Z,98894.88
2022-10-10T18:21:19.747Z,98891.81
2022-10-10T18:23:46.349Z,98893.97
2022-10-10T18:26:16.532Z,98895.09
2022-10-10T18:28:43.517Z,98893.16
2022-10-10T18:31:14.459Z,98892.09
2022-10-10T18:33:42.194Z,98901.53
2022-10-10T18:36:09.692Z,98896.25
2022-10-10T18:38:37.651Z,98901.31
2022-10-10T18:41:10.520Z,98901.94
2022-10-10T18:43:38.419Z,98908.56
2022-10-10T18:46:07.764Z,98911.56
2022-10-10T18:48:35.363Z,98907.94
2022-10-10T18:51:09.038Z,98901.84
2022-10-10T18:53:37.349Z,98904.00
2022-10-10T18:56:04.385Z,98901.31
2022-10-10T18:58:31.722Z,98905.25
2022-10-10T19:01:00.546Z,98912.19
2022-10-10T19:03:28.464Z,98907.22
2022-10-10T19:05:55.096Z,98914.13
2022-10-10T19:08:21.942Z,98914.03
2022-10-10T19:10:50.018Z,98915.91
2022-10-10T19:13:17.941Z,98909.88
2022-10-10T19:15:44.652Z,98913.09
2022-10-10T19:18:11.438Z,98906.28
2022-10-10T19:20:39.179Z,98904.00
2022-10-10T19:23:06.618Z,98910.63
2022-10-10T19:25:40.351Z,98909.28
2022-10-10T19:28:07.722Z,98914.53
2022-10-10T19:30:42.384Z,98907.19
2022-10-10T19:33:09.699Z,98910.81
2022-10-10T19:35:38.153Z,98909.16
2022-10-10T19:38:06.351Z,98920.53
2022-10-10T19:40:36.816Z,98920.75
2022-10-10T19:43:03.579Z,98921.66
2022-10-10T19:45:30.141Z,98919.19
2022-10-10T19:47:56.864Z,98917.34
2022-10-10T19:50:23.463Z,98914.44
2022-10-10T19:52:50.079Z,98911.31
2022-10-10T19:55:18.901Z,98922.91
2022-10-10T19:57:45.700Z,98927.94
2022-10-10T20:00:12.968Z,98925.25
2022-10-10T20:02:39.714Z,98924.13
2022-10-10T20:05:12.283Z,98932.28
2022-10-10T20:07:39.153Z,98932.38
2022-10-10T20:10:06.765Z,98942.84
2022-10-10T20:12:34.564Z,98947.25
2022-10-10T20:15:01.119Z,98936.09
2022-10-10T20:17:28.613Z,98945.31
2022-10-10T20:19:56.191Z,98946.44
2022-10-10T20:22:23.085Z,98948.19
2022-10-10T20:24:49.721Z,98944.06
2022-10-10T20:27:16.477Z,98941.16
2022-10-10T20:29:43.156Z,98946.44
2022-10-10T20:32:10.211Z,98949.94
2022-10-10T20:34:37.097Z,98955.97
2022-10-10T20:37:04.367Z,98954.00
2022-10-10T20:39:30.988Z,98955.97
2022-10-10T20:41:57.664Z,98952.63
2022-10-10T20:44:27.703Z,98938.53
2022-10-10T20:46:54.810Z,98945.69
2022-10-10T20:49:22.910Z,98926.94
2022-10-10T20:51:52.138Z,98947.75
2022-10-10T20:54:22.217Z,98942.59
2022-10-10T20:56:49.868Z,98938.41
2022-10-10T20:59:18.123Z,98934.84
2022-10-10T21:01:47.838Z,98936.13
2022-10-10T21:04:14.913Z,98937.25
2022-10-10T21:06:44.950Z,98935.78
2022-10-10T21:09:14.029Z,98939.28
2022-10-10T21:11:41.185Z,98937.69
2022-10-10T21:14:08.373Z,98940.19
2022-10-10T21:16:39.128Z,98945.75
2022-10-10T21:19:07.318Z,98942.78
2022-10-10T21:21:36.041Z,98948.78
2022-10-10T21:24:05.962Z,98952.28
2022-10-10T21:26:33.215Z,98949.50
2022-10-10T21:29:01.186Z,98950.97
2022-10-10T21:31:32.640Z,98942.88
2022-10-10T21:34:02.322Z,98951.63
2022-10-10T21:36:30.654Z,98950.50
2022-10-10T21:38:59.139Z,98953.19
2022-10-10T21:41:26.397Z,98945.66
2022-10-10T21:43:57.315Z,98956.78
2022-10-10T21:46:34.722Z,98967.31
2022-10-10T21:49:05.596Z,98957.19
2022-10-10T21:51:35.978Z,98963.06
2022-10-10T21:54:02.827Z,98958.66
2022-10-10T21:56:29.389Z,98963.16
2022-10-10T21:59:00.271Z,98962.16
2022-10-10T22:01:27.993Z,98960.50
2022-10-10T22:03:56.333Z,98954.41
2022-10-10T22:06:24.761Z,98967.78
2022-10-10T22:08:55.810Z,98962.72
2022-10-10T22:11:25.335Z,98962.16
2022-10-10T22:13:52.630Z,98958.97
2022-10-10T22:16:19.948Z,98965.03
2022-10-10T22:18:46.556Z,98968.63
2022-10-10T22:21:15.727Z,98971.13
2022-10-10T22:23:43.524Z,98968.34
2022-10-10T22:26:12.795Z,98964.22
2022-10-10T22:28:39.479Z,98962.19
2022-10-10T22:31:11.646Z,98960.16
2022-10-10T22:33:38.644Z,98964.38
2022-10-10T22:36:06.883Z,98967.16
2022-10-10T22:38:37.855Z,98969.72
2022-10-10T22:41:04.559Z,98962.91
2022-10-10T22:43:31.303Z,98963.94
2022-10-10T22:45:58.108Z,98969.09
2022-10-10T22:48:25.306Z,98975.56
2022-10-10T22:51:07.285Z,98960.41
2022-10-10T22:53:33.951Z,98977.38
2022-10-10T22:56:00.554Z,98967.16
2022-10-10T22:58:27.305Z,98970.75
2022-10-10T23:00:54.068Z,98977.56
2022-10-10T23:03:20.781Z,98978.34
2022-10-10T23:05:47.467Z,98969.00
2022-10-10T23:08:14.360Z,98973.06
2022-10-10T23:10:40.951Z,98965.41
2022-10-10T23:13:07.581Z,98962.91
2022-10-10T23:15:34.188Z,98968.53
2022-10-10T23:18:00.919Z,98967.91
2022-10-10T23:20:27.595Z,98950.97
2022-10-10T23:22:54.767Z,98964.97
2022-10-10T23:25:21.552Z,98970.03
2022-10-10T23:27:48.261Z,98965.59
2022-10-10T23:30:15.165Z,98970.66
2022-10-10T23:32:41.988Z,98962.09
2022-10-10T23:35:09.253Z,98970.03
2022-10-10T23:37:35.893Z,98971.59
2022-10-10T23:40:02.529Z,98972.88
2022-10-10T23:42:29.168Z,98970.50
2022-10-10T23:44:55.743Z,98972.31
2022-10-10T23:47:22.376Z,98970.31
2022-10-10T23:49:48.926Z,98973.25
2022-10-10T23:52:15.869Z,98958.34
2022-10-10T23:54:42.493Z,98967.56
2022-10-10T23:57:09.188Z,98966.59
2022-10-10T23:59:35.869Z,98973.16
